sensor_id;sensor_type;location;lat;lon;timestamp;pressure;altitude;pressure_sealevel;temperature;humidity
70971;BME280;58632;51.718;19.446;2023-02-16T00:00:05;100419.45;;;-1.77;100.00
70971;BME280;58632;51.718;19.446;2023-02-16T00:02:51;100416.98;;;-1.80;100.00
70971;BME280;58632;51.718;19.446;2023-02-16T00:05:27;100411.31;;;-1.84;100.00
70971;BME280;58632;51.718;19.446;2023-02-16T00:07:53;100415.44;;;-1.87;100.00
70971;BME280;58632;51.718;19.446;2023-02-16T00:10:19;100415.68;;;-1.87;100.00
70971;BME280;58632;51.718;19.446;2023-02-16T00:12:45;100413.43;;;-1.88;100.00
70971;BME280;58632;51.718;19.446;2023-02-16T00:15:29;100413.06;;;-1.87;100.00
70971;BME280;58632;51.718;19.446;2023-02-16T00:17:54;100412.36;;;-1.89;100.00
70971;BME280;58632;51.718;19.446;2023-02-16T00:20:22;100409.61;;;-1.88;100.00
70971;BME280;58632;51.718;19.446;2023-02-16T00:22:47;100410.56;;;-1.90;100.00
70971;BME280;58632;51.718;19.446;2023-02-16T00:25:13;100406.48;;;-1.94;100.00
70971;BME280;58632;51.718;19.446;2023-02-16T00:27:38;100408.16;;;-1.99;100.00
70971;BME280;58632;51.718;19.446;2023-02-16T00:30:14;100403.46;;;-2.05;100.00
70971;BME280;58632;51.718;19.446;2023-02-16T00:32:39;100401.83;;;-2.10;100.00
70971;BME280;58632;51.718;19.446;2023-02-16T00:35:12;100404.64;;;-2.15;100.00
70971;BME280;58632;51.718;19.446;2023-02-16T00:37:38;100406.31;;;-2.16;100.00
70971;BME280;58632;51.718;19.446;2023-02-16T00:40:04;100403.73;;;-2.17;100.00
70971;BME280;58632;51.718;19.446;2023-02-16T00:42:30;100403.30;;;-2.16;100.00
70971;BME280;58632;51.718;19.446;2023-02-16T00:44:57;100400.75;;;-2.14;100.00
70971;BME280;58632;51.718;19.446;2023-02-16T00:49:52;100390.96;;;-2.13;100.00
70971;BME280;58632;51.718;19.446;2023-02-16T00:52:32;100386.66;;;-2.15;100.00
70971;BME280;58632;51.718;19.446;2023-02-16T00:54:58;100386.86;;;-2.19;100.00
70971;BME280;58632;51.718;19.446;2023-02-16T00:57:24;100385.24;;;-2.25;100.00
70971;BME280;58632;51.718;19.446;2023-02-16T00:59:51;100382.34;;;-2.32;100.00
70971;BME280;58632;51.718;19.446;2023-02-16T01:02:18;100379.42;;;-2.38;100.00
70971;BME280;58632;51.718;19.446;2023-02-16T01:04:44;100380.59;;;-2.42;100.00
70971;BME280;58632;51.718;19.446;2023-02-16T01:07:11;100378.34;;;-2.45;100.00
70971;BME280;58632;51.718;19.446;2023-02-16T01:09:55;100380.23;;;-2.47;100.00
70971;BME280;58632;51.718;19.446;2023-02-16T01:12:40;100380.25;;;-2.46;100.00
70971;BME280;58632;51.718;19.446;2023-02-16T01:15:05;100375.40;;;-2.44;100.00
70971;BME280;58632;51.718;19.446;2023-02-16T01:17:34;100374.80;;;-2.42;100.00
70971;BME280;58632;51.718;19.446;2023-02-16T01:20:00;100373.02;;;-2.41;100.00
70971;BME280;58632;51.718;19.446;2023-02-16T01:22:25;100370.46;;;-2.42;100.00
70971;BME280;58632;51.718;19.446;2023-02-16T01:24:51;100375.73;;;-2.43;100.00
70971;BME280;58632;51.718;19.446;2023-02-16T01:27:16;100379.63;;;-2.46;100.00
70971;BME280;58632;51.718;19.446;2023-02-16T01:29:42;100375.28;;;-2.48;100.00
70971;BME280;58632;51.718;19.446;2023-02-16T01:32:09;100364.67;;;-2.49;100.00
70971;BME280;58632;51.718;19.446;2023-02-16T01:34:34;100359.84;;;-2.48;100.00
70971;BME280;58632;51.718;19.446;2023-02-16T01:37:00;100354.04;;;-2.49;100.00
70971;BME280;58632;51.718;19.446;2023-02-16T01:39:26;100358.98;;;-2.52;100.00
70971;BME280;58632;51.718;19.446;2023-02-16T01:44:33;100355.84;;;-2.56;100.00
70971;BME280;58632;51.718;19.446;2023-02-16T01:49:39;100354.61;;;-2.59;100.00
70971;BME280;58632;51.718;19.446;2023-02-16T01:52:13;100357.05;;;-2.61;100.00
70971;BME280;58632;51.718;19.446;2023-02-16T01:54:47;100358.94;;;-2.66;100.00
70971;BME280;58632;51.718;19.446;2023-02-16T02:02:38;100362.38;;;-2.76;100.00
70971;BME280;58632;51.718;19.446;2023-02-16T02:04:58;100363.67;;;-2.78;100.00
70971;BME280;58632;51.718;19.446;2023-02-16T02:07:45;100363.11;;;-2.77;100.00
70971;BME280;58632;51.718;19.446;2023-02-16T02:15:23;100350.23;;;-2.70;100.00
70971;BME280;58632;51.718;19.446;2023-02-16T02:17:50;100345.28;;;-2.69;100.00
70971;BME280;58632;51.718;19.446;2023-02-16T02:23:12;100335.00;;;-2.72;100.00
70971;BME280;58632;51.718;19.446;2023-02-16T02:31:04;100336.98;;;-2.81;100.00
70971;BME280;58632;51.718;19.446;2023-02-16T02:36:26;100327.55;;;-2.79;100.00
70971;BME280;58632;51.718;19.446;2023-02-16T02:39:04;100318.27;;;-2.75;100.00
70971;BME280;58632;51.718;19.446;2023-02-16T02:41:35;100317.31;;;-2.73;100.00
70971;BME280;58632;51.718;19.446;2023-02-16T02:44:20;100311.96;;;-2.73;100.00
70971;BME280;58632;51.718;19.446;2023-02-16T02:46:47;100306.64;;;-2.74;100.00
70971;BME280;58632;51.718;19.446;2023-02-16T02:49:13;100307.30;;;-2.74;100.00
70971;BME280;58632;51.718;19.446;2023-02-16T02:51:38;100299.27;;;-2.77;100.00
70971;BME280;58632;51.718;19.446;2023-02-16T02:56:54;100293.29;;;-2.79;100.00
70971;BME280;58632;51.718;19.446;2023-02-16T02:59:41;100288.77;;;-2.80;100.00
70971;BME280;58632;51.718;19.446;2023-02-16T03:02:27;100282.36;;;-2.79;100.00
70971;BME280;58632;51.718;19.446;2023-02-16T03:04:55;100278.48;;;-2.76;100.00
70971;BME280;58632;51.718;19.446;2023-02-16T03:07:22;100279.09;;;-2.73;100.00
70971;BME280;58632;51.718;19.446;2023-02-16T03:10:20;100284.48;;;-2.70;100.00
70971;BME280;58632;51.718;19.446;2023-02-16T03:13:16;100286.46;;;-2.69;100.00
70971;BME280;58632;51.718;19.446;2023-02-16T03:15:44;100290.31;;;-2.70;100.00
70971;BME280;58632;51.718;19.446;2023-02-16T03:18:11;100290.24;;;-2.71;100.00
70971;BME280;58632;51.718;19.446;2023-02-16T03:20:55;100287.13;;;-2.77;100.00
70971;BME280;58632;51.718;19.446;2023-02-16T03:23:41;100285.41;;;-2.80;100.00
70971;BME280;58632;51.718;19.446;2023-02-16T03:26:26;100284.98;;;-2.82;100.00
70971;BME280;58632;51.718;19.446;2023-02-16T03:29:12;100284.61;;;-2.82;100.00
70971;BME280;58632;51.718;19.446;2023-02-16T03:31:49;100276.95;;;-2.80;100.00
70971;BME280;58632;51.718;19.446;2023-02-16T03:34:16;100279.52;;;-2.77;100.00
70971;BME280;58632;51.718;19.446;2023-02-16T03:36:42;100276.00;;;-2.75;100.00
70971;BME280;58632;51.718;19.446;2023-02-16T03:39:09;100273.15;;;-2.71;100.00
70971;BME280;58632;51.718;19.446;2023-02-16T03:41:42;100272.55;;;-2.68;100.00
70971;BME280;58632;51.718;19.446;2023-02-16T03:44:10;100272.78;;;-2.66;100.00
70971;BME280;58632;51.718;19.446;2023-02-16T03:46:35;100271.15;;;-2.65;100.00
70971;BME280;58632;51.718;19.446;2023-02-16T03:49:01;100265.27;;;-2.62;100.00
70971;BME280;58632;51.718;19.446;2023-02-16T03:51:26;100258.77;;;-2.61;100.00
70971;BME280;58632;51.718;19.446;2023-02-16T03:53:52;100255.00;;;-2.59;100.00
70971;BME280;58632;51.718;19.446;2023-02-16T03:56:18;100248.57;;;-2.56;100.00
70971;BME280;58632;51.718;19.446;2023-02-16T03:58:44;100248.83;;;-2.50;100.00
70971;BME280;58632;51.718;19.446;2023-02-16T04:01:09;100246.51;;;-2.45;100.00
70971;BME280;58632;51.718;19.446;2023-02-16T04:03:35;100245.17;;;-2.43;100.00
70971;BME280;58632;51.718;19.446;2023-02-16T04:06:00;100247.77;;;-2.39;100.00
70971;BME280;58632;51.718;19.446;2023-02-16T04:08:26;100244.64;;;-2.37;100.00
70971;BME280;58632;51.718;19.446;2023-02-16T04:10:51;100246.67;;;-2.35;100.00
70971;BME280;58632;51.718;19.446;2023-02-16T04:13:18;100245.98;;;-2.35;100.00
70971;BME280;58632;51.718;19.446;2023-02-16T04:15:43;100251.73;;;-2.37;100.00
70971;BME280;58632;51.718;19.446;2023-02-16T04:18:09;100257.15;;;-2.38;100.00
70971;BME280;58632;51.718;19.446;2023-02-16T04:20:35;100249.17;;;-2.40;100.00
70971;BME280;58632;51.718;19.446;2023-02-16T04:23:00;100245.52;;;-2.38;100.00
70971;BME280;58632;51.718;19.446;2023-02-16T04:25:26;100244.42;;;-2.37;100.00
70971;BME280;58632;51.718;19.446;2023-02-16T04:27:52;100244.86;;;-2.35;100.00
70971;BME280;58632;51.718;19.446;2023-02-16T04:30:18;100242.14;;;-2.30;100.00
70971;BME280;58632;51.718;19.446;2023-02-16T04:32:44;100240.96;;;-2.24;100.00
70971;BME280;58632;51.718;19.446;2023-02-16T04:35:10;100238.88;;;-2.20;100.00
70971;BME280;58632;51.718;19.446;2023-02-16T04:37:36;100237.57;;;-2.17;100.00
70971;BME280;58632;51.718;19.446;2023-02-16T04:40:02;100236.85;;;-2.16;100.00
70971;BME280;58632;51.718;19.446;2023-02-16T04:42:28;100232.55;;;-2.16;100.00
70971;BME280;58632;51.718;19.446;2023-02-16T04:44:53;100237.38;;;-2.18;100.00
70971;BME280;58632;51.718;19.446;2023-02-16T04:47:19;100239.18;;;-2.21;100.00
70971;BME280;58632;51.718;19.446;2023-02-16T04:49:45;100237.20;;;-2.23;100.00
70971;BME280;58632;51.718;19.446;2023-02-16T04:52:11;100236.23;;;-2.25;100.00
70971;BME280;58632;51.718;19.446;2023-02-16T04:54:37;100236.84;;;-2.24;100.00
70971;BME280;58632;51.718;19.446;2023-02-16T04:57:03;100235.46;;;-2.25;100.00
70971;BME280;58632;51.718;19.446;2023-02-16T04:59:29;100238.67;;;-2.26;100.00
70971;BME280;58632;51.718;19.446;2023-02-16T05:01:54;100236.80;;;-2.28;100.00
70971;BME280;58632;51.718;19.446;2023-02-16T05:04:21;100237.94;;;-2.29;100.00
70971;BME280;58632;51.718;19.446;2023-02-16T05:06:47;100241.67;;;-2.31;100.00
70971;BME280;58632;51.718;19.446;2023-02-16T05:09:12;100240.20;;;-2.36;100.00
70971;BME280;58632;51.718;19.446;2023-02-16T05:11:38;100245.71;;;-2.44;100.00
70971;BME280;58632;51.718;19.446;2023-02-16T05:14:24;100246.40;;;-2.50;100.00
70971;BME280;58632;51.718;19.446;2023-02-16T05:17:19;100240.46;;;-2.53;100.00
70971;BME280;58632;51.718;19.446;2023-02-16T05:19:46;100238.95;;;-2.56;100.00
70971;BME280;58632;51.718;19.446;2023-02-16T05:22:12;100238.96;;;-2.56;100.00
70971;BME280;58632;51.718;19.446;2023-02-16T05:24:38;100239.11;;;-2.54;100.00
70971;BME280;58632;51.718;19.446;2023-02-16T05:27:04;100239.22;;;-2.50;100.00
70971;BME280;58632;51.718;19.446;2023-02-16T05:29:30;100238.73;;;-2.47;100.00
70971;BME280;58632;51.718;19.446;2023-02-16T05:31:56;100238.15;;;-2.47;100.00
70971;BME280;58632;51.718;19.446;2023-02-16T05:34:21;100239.76;;;-2.47;100.00
70971;BME280;58632;51.718;19.446;2023-02-16T05:36:46;100241.06;;;-2.46;100.00
70971;BME280;58632;51.718;19.446;2023-02-16T05:39:12;100237.25;;;-2.46;100.00
70971;BME280;58632;51.718;19.446;2023-02-16T05:41:37;100238.05;;;-2.49;100.00
70971;BME280;58632;51.718;19.446;2023-02-16T05:44:03;100240.05;;;-2.51;100.00
70971;BME280;58632;51.718;19.446;2023-02-16T05:46:29;100238.27;;;-2.53;100.00
70971;BME280;58632;51.718;19.446;2023-02-16T05:48:56;100240.79;;;-2.53;100.00
70971;BME280;58632;51.718;19.446;2023-02-16T05:51:22;100239.00;;;-2.52;100.00
70971;BME280;58632;51.718;19.446;2023-02-16T05:53:47;100242.34;;;-2.52;100.00
70971;BME280;58632;51.718;19.446;2023-02-16T05:56:13;100234.81;;;-2.54;100.00
70971;BME280;58632;51.718;19.446;2023-02-16T05:58:39;100239.33;;;-2.56;100.00
70971;BME280;58632;51.718;19.446;2023-02-16T06:01:04;100239.55;;;-2.58;100.00
70971;BME280;58632;51.718;19.446;2023-02-16T06:03:30;100238.86;;;-2.60;100.00
70971;BME280;58632;51.718;19.446;2023-02-16T06:05:56;100240.77;;;-2.64;100.00
70971;BME280;58632;51.718;19.446;2023-02-16T06:08:22;100241.80;;;-2.66;100.00
70971;BME280;58632;51.718;19.446;2023-02-16T06:10:51;100238.73;;;-2.65;100.00
70971;BME280;58632;51.718;19.446;2023-02-16T06:13:16;100242.94;;;-2.65;100.00
70971;BME280;58632;51.718;19.446;2023-02-16T06:15:42;100244.48;;;-2.63;100.00
70971;BME280;58632;51.718;19.446;2023-02-16T06:18:08;100241.97;;;-2.60;100.00
70971;BME280;58632;51.718;19.446;2023-02-16T06:20:38;100235.77;;;-2.55;100.00
70971;BME280;58632;51.718;19.446;2023-02-16T06:23:05;100235.98;;;-2.49;100.00
70971;BME280;58632;51.718;19.446;2023-02-16T06:25:30;100233.62;;;-2.44;100.00
70971;BME280;58632;51.718;19.446;2023-02-16T06:27:56;100232.02;;;-2.38;100.00
70971;BME280;58632;51.718;19.446;2023-02-16T06:30:22;100232.67;;;-2.31;100.00
70971;BME280;58632;51.718;19.446;2023-02-16T06:32:48;100235.21;;;-2.27;100.00
70971;BME280;58632;51.718;19.446;2023-02-16T06:35:14;100230.50;;;-2.23;100.00
70971;BME280;58632;51.718;19.446;2023-02-16T06:37:39;100234.80;;;-2.16;100.00
70971;BME280;58632;51.718;19.446;2023-02-16T06:40:05;100233.87;;;-2.09;100.00
70971;BME280;58632;51.718;19.446;2023-02-16T06:42:36;100238.02;;;-1.98;100.00
70971;BME280;58632;51.718;19.446;2023-02-16T06:45:02;100237.79;;;-1.86;100.00
70971;BME280;58632;51.718;19.446;2023-02-16T06:47:28;100236.15;;;-1.73;100.00
70971;BME280;58632;51.718;19.446;2023-02-16T06:49:54;100233.95;;;-1.58;100.00
70971;BME280;58632;51.718;19.446;2023-02-16T06:52:19;100235.04;;;-1.44;100.00
70971;BME280;58632;51.718;19.446;2023-02-16T06:54:45;100233.57;;;-1.27;100.00
70971;BME280;58632;51.718;19.446;2023-02-16T06:57:10;100231.62;;;-1.11;100.00
70971;BME280;58632;51.718;19.446;2023-02-16T06:59:36;100233.17;;;-0.94;100.00
70971;BME280;58632;51.718;19.446;2023-02-16T07:02:01;100232.45;;;-0.78;100.00
70971;BME280;58632;51.718;19.446;2023-02-16T07:04:27;100231.11;;;-0.57;100.00
70971;BME280;58632;51.718;19.446;2023-02-16T07:06:53;100226.86;;;-0.33;100.00
70971;BME280;58632;51.718;19.446;2023-02-16T07:09:18;100233.89;;;-0.07;100.00
70971;BME280;58632;51.718;19.446;2023-02-16T07:11:43;100228.77;;;0.18;100.00
70971;BME280;58632;51.718;19.446;2023-02-16T07:14:09;100222.19;;;0.42;100.00
70971;BME280;58632;51.718;19.446;2023-02-16T07:16:34;100226.66;;;0.65;100.00
70971;BME280;58632;51.718;19.446;2023-02-16T07:19:00;100226.67;;;0.91;100.00
70971;BME280;58632;51.718;19.446;2023-02-16T07:21:26;100222.21;;;1.11;100.00
70971;BME280;58632;51.718;19.446;2023-02-16T07:23:51;100218.78;;;1.28;100.00
70971;BME280;58632;51.718;19.446;2023-02-16T07:26:17;100216.80;;;1.43;100.00
70971;BME280;58632;51.718;19.446;2023-02-16T07:28:42;100212.69;;;1.60;100.00
70971;BME280;58632;51.718;19.446;2023-02-16T07:31:09;100212.73;;;1.77;100.00
70971;BME280;58632;51.718;19.446;2023-02-16T07:33:35;100217.84;;;1.96;100.00
70971;BME280;58632;51.718;19.446;2023-02-16T07:36:01;100216.35;;;2.15;100.00
70971;BME280;58632;51.718;19.446;2023-02-16T07:38:26;100212.77;;;2.30;100.00
70971;BME280;58632;51.718;19.446;2023-02-16T07:40:52;100214.48;;;2.48;100.00
70971;BME280;58632;51.718;19.446;2023-02-16T07:43:17;100210.73;;;2.65;100.00
70971;BME280;58632;51.718;19.446;2023-02-16T07:45:43;100213.11;;;2.80;100.00
70971;BME280;58632;51.718;19.446;2023-02-16T07:48:09;100212.61;;;2.93;100.00
70971;BME280;58632;51.718;19.446;2023-02-16T07:50:35;100208.48;;;3.11;100.00
70971;BME280;58632;51.718;19.446;2023-02-16T07:53:01;100213.83;;;3.27;100.00
70971;BME280;58632;51.718;19.446;2023-02-16T07:55:27;100217.39;;;3.37;100.00
70971;BME280;58632;51.718;19.446;2023-02-16T07:57:52;100218.64;;;3.48;100.00
70971;BME280;58632;51.718;19.446;2023-02-16T08:00:28;100215.28;;;3.60;100.00
70971;BME280;58632;51.718;19.446;2023-02-16T08:02:54;100215.70;;;3.70;100.00
70971;BME280;58632;51.718;19.446;2023-02-16T08:05:19;100217.09;;;3.86;100.00
70971;BME280;58632;51.718;19.446;2023-02-16T08:07:45;100220.77;;;4.01;100.00
70971;BME280;58632;51.718;19.446;2023-02-16T08:10:11;100218.17;;;4.11;100.00
70971;BME280;58632;51.718;19.446;2023-02-16T08:12:37;100216.39;;;4.18;100.00
70971;BME280;58632;51.718;19.446;2023-02-16T08:15:03;100219.98;;;4.26;100.00
70971;BME280;58632;51.718;19.446;2023-02-16T08:17:29;100224.29;;;4.35;100.00
70971;BME280;58632;51.718;19.446;2023-02-16T08:19:55;100227.27;;;4.46;100.00
70971;BME280;58632;51.718;19.446;2023-02-16T08:22:20;100223.20;;;4.58;100.00
70971;BME280;58632;51.718;19.446;2023-02-16T08:24:46;100225.60;;;4.56;100.00
70971;BME280;58632;51.718;19.446;2023-02-16T08:27:12;100222.40;;;4.46;100.00
70971;BME280;58632;51.718;19.446;2023-02-16T08:29:37;100218.81;;;4.47;100.00
70971;BME280;58632;51.718;19.446;2023-02-16T08:32:03;100220.50;;;4.57;100.00
70971;BME280;58632;51.718;19.446;2023-02-16T08:34:32;100219.91;;;4.71;100.00
70971;BME280;58632;51.718;19.446;2023-02-16T08:36:58;100223.84;;;4.86;100.00
70971;BME280;58632;51.718;19.446;2023-02-16T08:39:25;100220.48;;;4.96;100.00
70971;BME280;58632;51.718;19.446;2023-02-16T08:41:52;100218.73;;;4.94;100.00
70971;BME280;58632;51.718;19.446;2023-02-16T08:44:18;100218.84;;;4.98;100.00
70971;BME280;58632;51.718;19.446;2023-02-16T08:46:44;100221.98;;;5.04;100.00
70971;BME280;58632;51.718;19.446;2023-02-16T08:49:11;100221.05;;;5.07;100.00
70971;BME280;58632;51.718;19.446;2023-02-16T08:51:39;100220.10;;;5.18;100.00
70971;BME280;58632;51.718;19.446;2023-02-16T08:54:05;100219.33;;;5.25;100.00
70971;BME280;58632;51.718;19.446;2023-02-16T08:56:33;100219.65;;;5.23;100.00
70971;BME280;58632;51.718;19.446;2023-02-16T08:58:59;100221.34;;;5.23;100.00
70971;BME280;58632;51.718;19.446;2023-02-16T09:01:25;100216.42;;;5.29;100.00
70971;BME280;58632;51.718;19.446;2023-02-16T09:03:51;100219.61;;;5.37;100.00
70971;BME280;58632;51.718;19.446;2023-02-16T09:06:17;100217.28;;;5.36;100.00
70971;BME280;58632;51.718;19.446;2023-02-16T09:08:49;100221.40;;;5.39;100.00
70971;BME280;58632;51.718;19.446;2023-02-16T09:11:14;100217.83;;;5.39;100.00
70971;BME280;58632;51.718;19.446;2023-02-16T09:13:40;100215.04;;;5.37;100.00
70971;BME280;58632;51.718;19.446;2023-02-16T09:16:10;100212.71;;;5.36;100.00
70971;BME280;58632;51.718;19.446;2023-02-16T09:18:37;100215.48;;;5.42;100.00
70971;BME280;58632;51.718;19.446;2023-02-16T09:21:03;100217.34;;;5.48;100.00
70971;BME280;58632;51.718;19.446;2023-02-16T09:23:31;100215.11;;;5.50;100.00
70971;BME280;58632;51.718;19.446;2023-02-16T09:25:58;100214.25;;;5.49;100.00
70971;BME280;58632;51.718;19.446;2023-02-16T09:28:23;100213.73;;;5.54;100.00
70971;BME280;58632;51.718;19.446;2023-02-16T09:30:49;100211.70;;;5.57;100.00
70971;BME280;58632;51.718;19.446;2023-02-16T09:33:15;100206.87;;;5.59;100.00
70971;BME280;58632;51.718;19.446;2023-02-16T09:35:40;100200.56;;;5.63;100.00
70971;BME280;58632;51.718;19.446;2023-02-16T09:38:06;100201.09;;;5.65;100.00
70971;BME280;58632;51.718;19.446;2023-02-16T09:40:32;100200.70;;;5.65;100.00
70971;BME280;58632;51.718;19.446;2023-02-16T09:43:02;100199.84;;;5.65;100.00
70971;BME280;58632;51.718;19.446;2023-02-16T09:45:37;100199.88;;;5.67;100.00
70971;BME280;58632;51.718;19.446;2023-02-16T09:48:03;100196.23;;;5.67;100.00
70971;BME280;58632;51.718;19.446;2023-02-16T09:50:29;100192.05;;;5.69;100.00
70971;BME280;58632;51.718;19.446;2023-02-16T09:53:10;100193.20;;;5.78;100.00
70971;BME280;58632;51.718;19.446;2023-02-16T09:55:44;100189.58;;;5.83;100.00
70971;BME280;58632;51.718;19.446;2023-02-16T09:58:16;100188.48;;;5.99;100.00
70971;BME280;58632;51.718;19.446;2023-02-16T10:00:47;100188.14;;;6.08;100.00
70971;BME280;58632;51.718;19.446;2023-02-16T10:05:55;100179.52;;;6.23;100.00
70971;BME280;58632;51.718;19.446;2023-02-16T10:08:33;100176.61;;;6.31;100.00
70971;BME280;58632;51.718;19.446;2023-02-16T10:11:23;100171.70;;;6.36;100.00
70971;BME280;58632;51.718;19.446;2023-02-16T10:14:17;100168.84;;;6.37;100.00
70971;BME280;58632;51.718;19.446;2023-02-16T10:16:50;100167.50;;;6.37;100.00
70971;BME280;58632;51.718;19.446;2023-02-16T10:19:26;100167.19;;;6.39;100.00
70971;BME280;58632;51.718;19.446;2023-02-16T10:21:55;100164.75;;;6.46;100.00
70971;BME280;58632;51.718;19.446;2023-02-16T10:24:23;100166.65;;;6.53;100.00
70971;BME280;58632;51.718;19.446;2023-02-16T10:27:01;100163.66;;;6.59;100.00
70971;BME280;58632;51.718;19.446;2023-02-16T10:29:28;100162.78;;;6.66;100.00
70971;BME280;58632;51.718;19.446;2023-02-16T10:32:11;100164.20;;;6.71;100.00
70971;BME280;58632;51.718;19.446;2023-02-16T10:39:45;100171.42;;;6.84;100.00
70971;BME280;58632;51.718;19.446;2023-02-16T10:42:15;100167.81;;;6.87;100.00
70971;BME280;58632;51.718;19.446;2023-02-16T10:45:06;100166.79;;;6.91;100.00
70971;BME280;58632;51.718;19.446;2023-02-16T10:47:35;100162.65;;;6.90;100.00
70971;BME280;58632;51.718;19.446;2023-02-16T10:50:01;100160.02;;;6.88;100.00
70971;BME280;58632;51.718;19.446;2023-02-16T10:52:28;100165.01;;;6.89;100.00
70971;BME280;58632;51.718;19.446;2023-02-16T10:54:56;100162.95;;;6.88;100.00
70971;BME280;58632;51.718;19.446;2023-02-16T10:57:26;100169.64;;;6.83;100.00
70971;BME280;58632;51.718;19.446;2023-02-16T10:59:53;100169.00;;;6.80;100.00
70971;BME280;58632;51.718;19.446;2023-02-16T11:02:23;100163.88;;;6.82;100.00
70971;BME280;58632;51.718;19.446;2023-02-16T11:04:50;100157.55;;;6.82;100.00
70971;BME280;58632;51.718;19.446;2023-02-16T11:07:18;100158.47;;;6.83;100.00
70971;BME280;58632;51.718;19.446;2023-02-16T11:09:44;100157.86;;;6.90;100.00
70971;BME280;58632;51.718;19.446;2023-02-16T11:12:43;100157.60;;;7.00;100.00
70971;BME280;58632;51.718;19.446;2023-02-16T11:15:04;100150.77;;;7.10;100.00
70971;BME280;58632;51.718;19.446;2023-02-16T11:17:31;100149.45;;;7.22;100.00
70971;BME280;58632;51.718;19.446;2023-02-16T11:19:59;100153.60;;;7.34;100.00
70971;BME280;58632;51.718;19.446;2023-02-16T11:22:35;100155.03;;;7.46;100.00
70971;BME280;58632;51.718;19.446;2023-02-16T11:30:17;100151.51;;;7.70;100.00
70971;BME280;58632;51.718;19.446;2023-02-16T11:32:48;100149.88;;;7.74;100.00
70971;BME280;58632;51.718;19.446;2023-02-16T11:35:14;100146.09;;;7.79;100.00
70971;BME280;58632;51.718;19.446;2023-02-16T11:37:40;100141.35;;;7.86;100.00
70971;BME280;58632;51.718;19.446;2023-02-16T11:40:12;100142.64;;;7.89;100.00
70971;BME280;58632;51.718;19.446;2023-02-16T11:42:46;100139.32;;;7.91;100.00
70971;BME280;58632;51.718;19.446;2023-02-16T11:45:23;100145.02;;;7.95;100.00
70971;BME280;58632;51.718;19.446;2023-02-16T11:47:52;100148.77;;;8.00;100.00
70971;BME280;58632;51.718;19.446;2023-02-16T11:50:24;100145.70;;;7.97;100.00
70971;BME280;58632;51.718;19.446;2023-02-16T11:52:57;100147.83;;;7.95;100.00
70971;BME280;58632;51.718;19.446;2023-02-16T11:57:48;100140.34;;;7.92;100.00
70971;BME280;58632;51.718;19.446;2023-02-16T12:00:18;100136.23;;;7.90;100.00
70971;BME280;58632;51.718;19.446;2023-02-16T12:15:37;100125.04;;;7.60;100.00
70971;BME280;58632;51.718;19.446;2023-02-16T12:18:26;100123.48;;;7.59;100.00
70971;BME280;58632;51.718;19.446;2023-02-16T12:26:38;100122.23;;;7.38;100.00
70971;BME280;58632;51.718;19.446;2023-02-16T12:34:07;100117.01;;;7.42;100.00
70971;BME280;58632;51.718;19.446;2023-02-16T12:41:49;100102.38;;;7.39;100.00
70971;BME280;58632;51.718;19.446;2023-02-16T12:44:27;100100.86;;;7.33;100.00
70971;BME280;58632;51.718;19.446;2023-02-16T12:46:59;100100.79;;;7.28;100.00
70971;BME280;58632;51.718;19.446;2023-02-16T12:50:00;100103.20;;;7.26;100.00
70971;BME280;58632;51.718;19.446;2023-02-16T12:55:48;100099.63;;;7.29;100.00
70971;BME280;58632;51.718;19.446;2023-02-16T12:57:51;100100.16;;;7.30;100.00
70971;BME280;58632;51.718;19.446;2023-02-16T13:00:20;100098.25;;;7.34;100.00
70971;BME280;58632;51.718;19.446;2023-02-16T13:02:51;100094.36;;;7.34;100.00
70971;BME280;58632;51.718;19.446;2023-02-16T13:05:20;100095.80;;;7.38;100.00
70971;BME280;58632;51.718;19.446;2023-02-16T13:07:49;100094.55;;;7.42;100.00
70971;BME280;58632;51.718;19.446;2023-02-16T13:10:19;100095.81;;;7.45;100.00
70971;BME280;58632;51.718;19.446;2023-02-16T13:12:54;100097.17;;;7.45;100.00
70971;BME280;58632;51.718;19.446;2023-02-16T13:15:34;100096.42;;;7.45;100.00
70971;BME280;58632;51.718;19.446;2023-02-16T13:18:01;100095.45;;;7.44;100.00
70971;BME280;58632;51.718;19.446;2023-02-16T13:20:28;100092.18;;;7.44;100.00
70971;BME280;58632;51.718;19.446;2023-02-16T13:30:39;100088.97;;;7.55;100.00
70971;BME280;58632;51.718;19.446;2023-02-16T13:33:17;100085.05;;;7.58;100.00
70971;BME280;58632;51.718;19.446;2023-02-16T13:45:54;100085.27;;;7.70;100.00
70971;BME280;58632;51.718;19.446;2023-02-16T13:48:36;100088.98;;;7.73;100.00
70971;BME280;58632;51.718;19.446;2023-02-16T13:51:05;100087.58;;;7.73;100.00
70971;BME280;58632;51.718;19.446;2023-02-16T13:53:37;100093.38;;;7.71;100.00
70971;BME280;58632;51.718;19.446;2023-02-16T13:56:30;100090.56;;;7.69;100.00
70971;BME280;58632;51.718;19.446;2023-02-16T13:59:46;100089.36;;;7.65;100.00
70971;BME280;58632;51.718;19.446;2023-02-16T14:01:45;100086.52;;;7.66;100.00
70971;BME280;58632;51.718;19.446;2023-02-16T14:06:45;100085.15;;;7.63;100.00
70971;BME280;58632;51.718;19.446;2023-02-16T14:14:27;100081.67;;;7.67;100.00
70971;BME280;58632;51.718;19.446;2023-02-16T14:16:54;100078.40;;;7.67;100.00
70971;BME280;58632;51.718;19.446;2023-02-16T14:19:24;100076.83;;;7.66;100.00
70971;BME280;58632;51.718;19.446;2023-02-16T14:21:50;100069.73;;;7.66;100.00
70971;BME280;58632;51.718;19.446;2023-02-16T14:27:01;100065.43;;;7.58;100.00
70971;BME280;58632;51.718;19.446;2023-02-16T14:29:37;100065.85;;;7.56;100.00
70971;BME280;58632;51.718;19.446;2023-02-16T14:34:39;100074.19;;;7.48;100.00